Terminal Aerodrome Forecast
Issued by NWS Tulsa, OK

Home | Current Version | Previous Version | Text Only | Print | Product List | Glossary On
Versions: 1 2 3 4 5 6 7 8 9 10 11 12 13 14 15
000
FTUS44 KTSA 262340
TAFFSM
TAF
KFSM 262340Z 2700/2724 10011KT P6SM VCTS SCT070 BKN110CB
     FM270200 11010KT P6SM VCTS BKN050CB BKN070
      TEMPO 2703/2706 VRB12KT 4SM TSRA BKN035CB
     FM270700 10006KT P6SM SCT015 BKN035
     FM270900 VRB05KT 4SM BR VCSH BKN015
     FM271900 30010KT P6SM BKN025 BKN035=

USA.gov is the U.S. government's official web portal to all federal, state and local government web resources and services.